This is the latest recevied weather packets stored in our database for station/object SP8PUB-10. If no packets are shown the sender has not sent any weather packets the latest 10 day(s).
| Time | Temp. | Humidity | Pressure | Rain* | Wind** | Luminosity | Snow |
|---|---|---|---|---|---|---|---|
| 1777464246 | 10° C | 39% | 1025.6 hPa | - | - | - | - |
| 1777463346 | 11.11° C | 38% | 1025.7 hPa | - | - | - | - |
| 1777462445 | 10° C | 40% | 1025.6 hPa | - | - | - | - |
| 1777461545 | 11.11° C | 39% | 1025.7 hPa | - | - | - | - |
| 1777460645 | 10° C | 41% | 1025.7 hPa | - | - | - | - |
| 1777458845 | 10° C | 41% | 1025.9 hPa | - | - | - | - |
| 1777457944 | 8.89° C | 43% | 1025.9 hPa | - | - | - | - |
| 1777457043 | 11.11° C | 44% | 1025.8 hPa | - | - | - | - |
| 1777455248 | 10.56° C | 43% | 1025.8 hPa | - | - | - | - |
| 1777454348 | 9.44° C | 44% | 1026 hPa | - | - | - | - |
| 1777453448 | 11.11° C | 42% | 1025.9 hPa | - | - | - | - |
| 1777452548 | 12.22° C | 42% | 1025.8 hPa | - | - | - | - |
| 1777451647 | 18.33° C | 36% | 1025.8 hPa | - | - | - | - |
| 1777450747 | 12.22° C | 43% | 1025.6 hPa | - | - | - | - |
| 1777449847 | 17.78° C | 38% | 1025.7 hPa | - | - | - | - |
| 1777448947 | 17.78° C | 37% | 1025.7 hPa | - | - | - | - |
| 1777448047 | 19.44° C | 35% | 1025.5 hPa | - | - | - | - |
| 1777447147 | 20.56° C | 36% | 1025.5 hPa | - | - | - | - |
| 1777446247 | 19.44° C | 37% | 1025.4 hPa | - | - | - | - |
| 1777445346 | 18.89° C | 39% | 1025.5 hPa | - | - | - | - |
| 1777444446 | 17.78° C | 42% | 1025.4 hPa | - | - | - | - |
| 1777443546 | 10.56° C | 53% | 1025.3 hPa | - | - | - | - |
| 1777442646 | 10.56° C | 52% | 1025.2 hPa | - | - | - | - |
| 1777441746 | 11.11° C | 52% | 1025.2 hPa | - | - | - | - |
| 1777440846 | 11.11° C | 53% | 1025 hPa | - | - | - | - |
* Rain since midnight (hover to see other rain measurements)
** Current wind speed in m/s (hover to see current wind gust speed)